Time;durP1;ratioP1;P1;durP2;ratioP2;P2;SDS_P1;SDS_P2;PMS_P1;PMS_P2;Temp;Humidity;BMP_temperature;BMP_pressure;BME280_temperature;BME280_humidity;BME280_pressure;Samples;Min_cycle;Max_cycle;Signal;HPM_P1;HPM_P2
2023/12/12 00:02:15;;;;;;;10.60;5.72;;;-2.30;99.90;;;;;;4958032;28;20215;-94
2023/12/12 00:04:43;;;;;;;12.45;5.60;;;-2.30;99.90;;;;;;4942389;28;20204;-94
2023/12/12 00:07:10;;;;;;;12.93;6.20;;;-2.30;99.90;;;;;;4957638;28;20270;-94
2023/12/12 00:09:38;;;;;;;13.23;5.82;;;-2.20;99.90;;;;;;4957194;28;20195;-95
2023/12/12 00:12:05;;;;;;;11.20;5.53;;;-2.20;99.90;;;;;;4974798;28;20232;-93
2023/12/12 00:14:33;;;;;;;11.93;5.38;;;-2.20;99.90;;;;;;4957498;28;20242;-95
2023/12/12 00:17:00;;;;;;;12.35;6.18;;;-2.30;99.90;;;;;;4941516;28;20184;-93
2023/12/12 00:19:28;;;;;;;15.02;6.65;;;-2.20;99.90;;;;;;4957240;28;20229;-94
2023/12/12 00:21:55;;;;;;;14.20;5.78;;;-2.20;99.90;;;;;;4956804;28;20658;-93
2023/12/12 00:24:22;;;;;;;14.65;6.47;;;-2.30;99.90;;;;;;4937901;29;20659;-94
2023/12/12 00:26:50;;;;;;;13.93;6.15;;;-2.20;99.90;;;;;;4953386;29;20659;-96
2023/12/12 00:29:17;;;;;;;11.63;5.43;;;-2.20;99.90;;;;;;4922233;29;20208;-94
2023/12/12 00:31:45;;;;;;;13.18;5.50;;;-2.20;99.90;;;;;;4923087;29;20215;-93
2023/12/12 00:34:12;;;;;;;11.98;5.45;;;-2.20;99.90;;;;;;4922990;29;20195;-91
2023/12/12 00:36:40;;;;;;;11.65;5.45;;;-2.20;99.90;;;;;;4938961;29;20271;-93
2023/12/12 00:39:07;;;;;;;13.38;6.25;;;-2.20;99.90;;;;;;4923042;29;20200;-94
2023/12/12 00:41:35;;;;;;;13.27;5.88;;;-2.20;99.90;;;;;;4923313;29;20228;-93
2023/12/12 00:44:03;;;;;;;12.48;5.80;;;-2.20;99.90;;;;;;4922688;29;20243;-94
2023/12/12 00:46:30;;;;;;;11.48;5.53;;;-2.20;99.90;;;;;;4938292;29;20528;-93
2023/12/12 00:48:58;;;;;;;13.45;5.93;;;-2.20;99.90;;;;;;4937165;29;20189;-95
2023/12/12 00:51:26;;;;;;;13.82;6.10;;;-2.20;99.90;;;;;;4921827;29;20663;-94
2023/12/12 00:53:53;;;;;;;14.00;6.55;;;-2.20;99.90;;;;;;4953580;28;20305;-93
2023/12/12 00:56:20;;;;;;;14.68;6.55;;;-2.20;99.90;;;;;;4921637;29;20188;-94
2023/12/12 00:58:48;;;;;;;13.70;5.95;;;-2.20;99.90;;;;;;4922142;29;20209;-95
2023/12/12 01:01:16;;;;;;;13.40;5.93;;;-2.20;99.90;;;;;;4923077;29;20251;-94
2023/12/12 01:03:43;;;;;;;11.48;5.53;;;-2.20;99.90;;;;;;4937437;29;20261;-91
2023/12/12 01:06:24;;;;;;;14.55;5.63;;;-2.20;99.90;;;;;;4921098;29;20199;-91
2023/12/12 01:08:55;;;;;;;13.50;5.32;;;-2.20;99.90;;;;;;4922892;29;20185;-94
2023/12/12 01:11:23;;;;;;;14.95;6.43;;;-2.20;99.90;;;;;;4937422;29;20240;-94
2023/12/12 01:13:51;;;;;;;13.00;6.60;;;-2.20;99.90;;;;;;4922852;29;20192;-93
2023/12/12 01:16:18;;;;;;;14.50;6.15;;;-2.20;99.90;;;;;;4923604;29;20189;-94
2023/12/12 01:18:46;;;;;;;12.07;5.88;;;-2.20;99.90;;;;;;4925968;29;20192;-93
2023/12/12 01:21:14;;;;;;;15.82;6.28;;;-2.10;99.90;;;;;;4925346;29;20196;-93
2023/12/12 01:23:52;;;;;;;13.88;6.55;;;-2.10;99.90;;;;;;4925066;29;20638;-95
2023/12/12 01:26:22;;;;;;;13.50;6.30;;;-2.20;99.90;;;;;;4940738;29;20283;-93
2023/12/12 01:28:50;;;;;;;15.95;6.60;;;-2.10;99.90;;;;;;4925107;29;20193;-94
2023/12/12 01:31:18;;;;;;;13.07;6.70;;;-2.10;99.90;;;;;;4925901;29;20223;-94
2023/12/12 01:33:48;;;;;;;12.43;5.88;;;-2.10;99.90;;;;;;4926069;29;20211;-93
2023/12/12 01:36:15;;;;;;;14.20;6.10;;;-2.10;99.90;;;;;;4925798;29;20193;-95
2023/12/12 01:38:44;;;;;;;12.02;6.38;;;-2.10;99.90;;;;;;4925328;29;20192;-94
2023/12/12 01:41:12;;;;;;;15.77;7.03;;;-2.10;99.90;;;;;;4923417;29;20240;-94
2023/12/12 01:43:40;;;;;;;17.60;6.72;;;-2.10;99.90;;;;;;4939691;28;20208;-94
2023/12/12 01:46:11;;;;;;;15.07;6.43;;;-2.10;99.90;;;;;;4924467;29;20219;-95
2023/12/12 01:48:40;;;;;;;15.15;6.80;;;-2.10;99.90;;;;;;4925014;29;20196;-95
2023/12/12 01:51:09;;;;;;;16.48;7.38;;;-2.10;99.90;;;;;;4924648;29;20212;-94
2023/12/12 01:53:43;;;;;;;13.00;6.78;;;-2.10;99.90;;;;;;4924309;29;20288;-93
2023/12/12 01:56:11;;;;;;;14.90;7.35;;;-2.10;99.90;;;;;;4923947;29;20189;-93
2023/12/12 01:58:42;;;;;;;15.60;7.20;;;-2.10;99.90;;;;;;4940340;29;20280;-94
2023/12/12 02:01:10;;;;;;;17.05;7.40;;;-2.10;99.90;;;;;;4924276;29;20196;-95
2023/12/12 02:03:41;;;;;;;14.85;7.03;;;-2.10;99.90;;;;;;4924433;29;20203;-94
2023/12/12 02:06:11;;;;;;;18.55;7.95;;;-2.10;99.90;;;;;;4950387;28;20213;-94
2023/12/12 02:08:40;;;;;;;15.90;7.20;;;-2.10;99.90;;;;;;4973128;28;20181;-94
2023/12/12 02:11:08;;;;;;;14.90;7.45;;;-2.00;99.90;;;;;;4956702;29;20219;-95
2023/12/12 02:13:35;;;;;;;13.85;7.15;;;-2.10;99.90;;;;;;4973423;28;20196;-94
2023/12/12 02:16:03;;;;;;;17.27;6.80;;;-2.10;99.90;;;;;;4956491;29;20544;-95
2023/12/12 02:18:30;;;;;;;16.15;7.68;;;-2.10;99.90;;;;;;4956348;28;20196;-93
2023/12/12 02:21:00;;;;;;;13.30;6.32;;;-2.10;99.90;;;;;;4972178;28;20196;-94
2023/12/12 02:23:28;;;;;;;13.80;6.75;;;-2.10;99.90;;;;;;5265644;23;20232;-79
2023/12/12 02:25:56;;;;;;;14.82;6.78;;;-2.00;99.90;;;;;;4978000;28;20220;-82
2023/12/12 02:28:24;;;;;;;12.85;6.15;;;-2.10;99.90;;;;;;4962056;28;20209;-80
2023/12/12 02:30:51;;;;;;;14.88;6.93;;;-2.10;99.90;;;;;;4961499;29;20185;-83
2023/12/12 02:33:19;;;;;;;15.35;7.05;;;-2.00;99.90;;;;;;4960763;29;20188;-81
2023/12/12 02:35:46;;;;;;;12.02;5.90;;;-2.00;99.90;;;;;;4960484;29;20188;-82
2023/12/12 02:38:14;;;;;;;14.48;6.22;;;-2.10;99.90;;;;;;4962158;29;20189;-84
2023/12/12 02:40:41;;;;;;;13.65;6.63;;;-2.00;99.90;;;;;;4963984;29;20609;-81
2023/12/12 02:43:09;;;;;;;13.90;6.70;;;-2.00;99.90;;;;;;4962207;29;20727;-78
2023/12/12 02:45:36;;;;;;;14.82;6.78;;;-2.10;99.90;;;;;;4960148;29;20184;-80
2023/12/12 02:48:04;;;;;;;13.88;6.28;;;-2.00;99.90;;;;;;4959545;29;20184;-81
2023/12/12 02:50:31;;;;;;;13.68;6.32;;;-2.00;99.90;;;;;;4963262;28;20185;-79
2023/12/12 02:52:59;;;;;;;14.82;7.05;;;-2.00;99.90;;;;;;4962261;29;20219;-80
2023/12/12 02:55:26;;;;;;;15.98;6.45;;;-2.00;99.90;;;;;;4962273;29;20185;-83
2023/12/12 02:57:54;;;;;;;14.60;6.47;;;-2.00;99.90;;;;;;4960937;29;20247;-81
2023/12/12 03:00:21;;;;;;;11.93;6.35;;;-2.00;99.90;;;;;;4961658;29;20196;-81
2023/12/12 03:02:49;;;;;;;14.18;6.50;;;-2.00;99.90;;;;;;4961954;29;20193;-83
2023/12/12 03:05:16;;;;;;;13.15;6.72;;;-2.00;99.90;;;;;;4962337;29;20184;-78
2023/12/12 03:07:44;;;;;;;15.13;6.18;;;-2.00;99.90;;;;;;4944937;29;20200;-83
2023/12/12 03:10:11;;;;;;;13.55;5.70;;;-2.00;99.90;;;;;;4959880;29;20193;-84
2023/12/12 03:12:39;;;;;;;13.15;6.50;;;-2.00;99.90;;;;;;4959507;29;20217;-80
2023/12/12 03:15:07;;;;;;;12.10;5.85;;;-2.00;99.90;;;;;;4958968;29;20192;-80
2023/12/12 03:17:34;;;;;;;11.70;6.18;;;-2.00;99.90;;;;;;4959485;29;20206;-80
2023/12/12 03:20:03;;;;;;;12.80;6.47;;;-2.00;99.90;;;;;;4960987;29;20189;-82
2023/12/12 03:22:30;;;;;;;12.85;6.45;;;-2.00;99.90;;;;;;4946954;28;20201;-80
2023/12/12 03:24:58;;;;;;;17.08;7.13;;;-2.00;99.90;;;;;;4964871;28;20195;-80
2023/12/12 03:27:25;;;;;;;13.95;6.70;;;-2.00;99.90;;;;;;4982563;28;20191;-80
2023/12/12 03:29:53;;;;;;;13.55;6.50;;;-2.00;99.90;;;;;;4982058;28;20188;-80
2023/12/12 03:32:20;;;;;;;14.43;6.82;;;-2.00;99.90;;;;;;4981907;28;20211;-81
2023/12/12 03:34:48;;;;;;;13.70;6.80;;;-2.00;99.90;;;;;;4964908;28;20192;-80
2023/12/12 03:37:16;;;;;;;14.90;7.00;;;-2.00;99.90;;;;;;4964220;28;20180;-81
2023/12/12 03:39:44;;;;;;;16.40;7.30;;;-2.00;99.90;;;;;;4964394;28;20188;-80
2023/12/12 03:42:11;;;;;;;14.15;7.10;;;-2.00;99.90;;;;;;4964200;28;20274;-80
2023/12/12 03:44:39;;;;;;;14.70;7.07;;;-1.90;99.90;;;;;;4981788;28;20262;-81
2023/12/12 03:47:06;;;;;;;15.80;7.57;;;-2.00;99.90;;;;;;4964609;28;20196;-83
2023/12/12 03:49:34;;;;;;;11.38;6.20;;;-2.00;99.90;;;;;;4962876;28;20188;-80
2023/12/12 03:52:02;;;;;;;14.05;6.88;;;-1.90;99.90;;;;;;4978606;28;20583;-82
2023/12/12 03:54:32;;;;;;;12.88;6.05;;;-1.90;99.90;;;;;;4980519;28;20611;-81
2023/12/12 03:57:00;;;;;;;15.32;7.30;;;-2.00;99.90;;;;;;4981709;28;20243;-80
2023/12/12 03:59:27;;;;;;;15.95;6.72;;;-1.90;99.90;;;;;;4981900;28;20188;-84
2023/12/12 04:01:55;;;;;;;17.08;7.65;;;-1.90;99.90;;;;;;4981249;28;20673;-80
2023/12/12 04:04:22;;;;;;;16.23;7.47;;;-1.90;99.90;;;;;;4964114;28;20238;-79
2023/12/12 04:06:50;;;;;;;18.98;8.20;;;-1.90;99.90;;;;;;4964123;28;20199;-80
2023/12/12 04:09:17;;;;;;;14.07;6.57;;;-1.90;99.90;;;;;;4963933;28;20308;-81
2023/12/12 04:11:45;;;;;;;15.02;6.80;;;-1.90;99.90;;;;;;4964290;28;20215;-81
2023/12/12 04:14:12;;;;;;;16.30;7.63;;;-1.90;99.90;;;;;;4981635;28;20192;-79
2023/12/12 04:16:40;;;;;;;13.93;6.68;;;-1.90;99.90;;;;;;4981155;28;20184;-82
2023/12/12 04:19:07;;;;;;;14.23;6.28;;;-1.90;99.90;;;;;;4963416;28;20199;-80
2023/12/12 04:21:35;;;;;;;16.20;7.35;;;-1.90;99.90;;;;;;4962155;28;20258;-83
2023/12/12 04:24:03;;;;;;;15.65;7.38;;;-1.90;99.90;;;;;;4980812;28;20329;-80
2023/12/12 04:26:30;;;;;;;16.38;7.60;;;-1.90;99.90;;;;;;4978949;28;20219;-79
2023/12/12 04:28:57;;;;;;;16.23;7.28;;;-1.90;99.90;;;;;;4948129;28;20195;-80
2023/12/12 04:31:25;;;;;;;16.77;7.70;;;-1.90;99.90;;;;;;4964198;28;20202;-80
2023/12/12 04:33:53;;;;;;;14.15;7.43;;;-1.90;99.90;;;;;;4968954;28;20254;-82
2023/12/12 04:36:20;;;;;;;15.93;7.80;;;-1.90;99.90;;;;;;4998863;28;20179;-80
2023/12/12 04:38:48;;;;;;;17.40;8.13;;;-1.90;99.90;;;;;;5001074;28;20242;-80
2023/12/12 04:41:15;;;;;;;16.70;7.00;;;-1.90;99.90;;;;;;5000805;28;20190;-80
2023/12/12 04:43:43;;;;;;;15.32;6.68;;;-1.90;99.90;;;;;;4985341;28;20618;-81
2023/12/12 04:46:20;;;;;;;16.48;7.30;;;-1.90;99.90;;;;;;4998303;28;20278;-79
2023/12/12 04:48:49;;;;;;;17.67;7.57;;;-1.90;99.90;;;;;;4998145;28;20257;-81
2023/12/12 04:51:17;;;;;;;15.13;7.22;;;-1.90;99.90;;;;;;5001811;28;20183;-80
2023/12/12 04:53:44;;;;;;;13.20;6.90;;;-1.90;99.90;;;;;;5003290;28;20187;-80
2023/12/12 04:56:12;;;;;;;14.82;6.72;;;-1.90;99.90;;;;;;5001334;28;20194;-80
2023/12/12 04:58:39;;;;;;;18.45;7.93;;;-1.90;99.90;;;;;;4986555;28;20673;-79
2023/12/12 05:01:07;;;;;;;17.80;7.97;;;-1.90;99.90;;;;;;5001627;28;20190;-83
2023/12/12 05:03:34;;;;;;;15.60;7.10;;;-1.90;99.90;;;;;;5001755;28;20579;-80
2023/12/12 05:06:02;;;;;;;14.15;7.57;;;-1.90;99.90;;;;;;5002522;28;20198;-84
2023/12/12 05:08:29;;;;;;;16.92;7.70;;;-1.90;99.90;;;;;;5000556;28;20238;-84
2023/12/12 05:10:57;;;;;;;17.52;7.82;;;-1.80;99.90;;;;;;4985065;28;20191;-80
2023/12/12 05:13:24;;;;;;;19.40;8.15;;;-1.80;99.90;;;;;;5002155;28;20692;-83
2023/12/12 05:15:52;;;;;;;17.77;8.40;;;-1.80;99.90;;;;;;5004347;28;20984;-80
2023/12/12 05:18:20;;;;;;;15.93;7.80;;;-1.80;99.90;;;;;;5004697;28;20187;-83
2023/12/12 05:20:48;;;;;;;19.55;8.05;;;-1.80;99.90;;;;;;4975326;28;20204;-81
2023/12/12 05:23:16;;;;;;;16.00;8.30;;;-1.90;99.90;;;;;;4989992;28;20234;-80
2023/12/12 05:25:43;;;;;;;15.82;7.65;;;-1.80;99.90;;;;;;4986517;28;20203;-80
2023/12/12 05:28:11;;;;;;;17.98;8.52;;;-1.80;99.90;;;;;;4987366;28;20203;-81
2023/12/12 05:30:38;;;;;;;16.60;7.85;;;-1.80;99.90;;;;;;4984249;28;20255;-83
2023/12/12 05:33:07;;;;;;;18.65;8.55;;;-1.80;99.90;;;;;;4981676;28;20207;-82
2023/12/12 05:35:35;;;;;;;17.67;8.30;;;-1.80;99.90;;;;;;4982436;28;20191;-80
2023/12/12 05:38:03;;;;;;;18.20;7.82;;;-1.80;99.90;;;;;;4982314;28;20215;-81
2023/12/12 05:40:30;;;;;;;16.13;8.13;;;-1.80;99.90;;;;;;4981779;28;20184;-80
2023/12/12 05:42:58;;;;;;;19.35;9.55;;;-1.80;99.90;;;;;;4982011;28;20215;-81
2023/12/12 05:45:26;;;;;;;19.52;9.45;;;-1.80;99.90;;;;;;4983306;28;20270;-84
2023/12/12 05:47:53;;;;;;;18.80;9.10;;;-1.80;99.90;;;;;;4984778;28;20206;-80
2023/12/12 05:50:21;;;;;;;17.88;9.10;;;-1.80;99.90;;;;;;4990959;28;20614;-80
2023/12/12 05:52:50;;;;;;;24.42;10.05;;;-1.80;99.90;;;;;;4988619;28;20215;-80
2023/12/12 05:55:18;;;;;;;16.55;8.65;;;-1.80;99.90;;;;;;4997663;28;20188;-80
2023/12/12 05:57:45;;;;;;;21.45;9.88;;;-1.80;99.90;;;;;;5004414;28;20187;-82
2023/12/12 06:00:13;;;;;;;17.58;8.43;;;-1.80;99.90;;;;;;5003953;28;20562;-81
2023/12/12 06:02:41;;;;;;;16.85;8.13;;;-1.80;99.90;;;;;;5003942;28;20247;-79
2023/12/12 06:05:09;;;;;;;19.08;8.95;;;-1.80;99.90;;;;;;5003569;28;20187;-80
2023/12/12 06:07:38;;;;;;;18.13;8.57;;;-1.70;99.90;;;;;;5004298;28;20197;-80
2023/12/12 06:10:06;;;;;;;16.52;7.90;;;-1.70;99.90;;;;;;4998755;28;20187;-87
2023/12/12 06:12:37;;;;;;;19.08;8.43;;;-1.80;99.90;;;;;;4978436;28;20580;-84
2023/12/12 06:15:07;;;;;;;20.70;9.10;;;-1.70;99.90;;;;;;4998535;28;20176;-86
2023/12/12 06:17:35;;;;;;;21.98;9.45;;;-1.70;99.90;;;;;;4999088;28;20247;-85
2023/12/12 06:20:04;;;;;;;24.73;10.15;;;-1.80;99.90;;;;;;4996680;28;20275;-80
2023/12/12 06:22:32;;;;;;;18.17;7.90;;;-1.70;99.90;;;;;;4976334;28;20262;-84
2023/12/12 06:24:59;;;;;;;21.13;9.02;;;-1.80;99.90;;;;;;4994569;28;20611;-84
2023/12/12 06:27:27;;;;;;;16.25;7.43;;;-1.70;99.90;;;;;;4994255;28;20246;-82
2023/12/12 06:29:54;;;;;;;15.65;7.30;;;-1.70;99.90;;;;;;4978458;28;20198;-83
2023/12/12 06:32:22;;;;;;;18.30;8.25;;;-1.70;99.90;;;;;;4994174;28;20567;-82
2023/12/12 06:34:50;;;;;;;13.35;6.90;;;-1.70;99.90;;;;;;4989274;28;20218;-84
2023/12/12 06:37:17;;;;;;;17.35;7.30;;;-1.70;99.90;;;;;;4985055;28;20210;-83
2023/12/12 06:39:45;;;;;;;15.98;7.63;;;-1.70;99.90;;;;;;4974262;28;20188;-84
2023/12/12 06:42:12;;;;;;;18.83;8.43;;;-1.70;99.90;;;;;;4993278;28;20183;-84
2023/12/12 06:44:40;;;;;;;17.08;9.02;;;-1.70;99.90;;;;;;4993684;28;20187;-83
2023/12/12 06:47:09;;;;;;;16.80;8.63;;;-1.70;99.90;;;;;;4977650;28;20326;-85
2023/12/12 06:49:36;;;;;;;15.90;7.88;;;-1.70;99.90;;;;;;4978683;28;20271;-85
2023/12/12 06:52:04;;;;;;;18.20;8.15;;;-1.70;99.90;;;;;;4996195;28;20207;-82
2023/12/12 06:54:31;;;;;;;17.17;7.85;;;-1.70;99.90;;;;;;4993641;28;20567;-85
2023/12/12 06:56:59;;;;;;;17.42;8.10;;;-1.70;99.90;;;;;;4992319;28;20226;-83
2023/12/12 06:59:26;;;;;;;18.08;8.45;;;-1.70;99.90;;;;;;4992729;28;20274;-83
2023/12/12 07:01:54;;;;;;;16.95;7.80;;;-1.70;99.90;;;;;;4990632;28;20183;-80
2023/12/12 07:04:22;;;;;;;17.35;7.63;;;-1.70;99.90;;;;;;4973578;28;20187;-82
2023/12/12 07:06:49;;;;;;;17.95;8.43;;;-1.70;99.90;;;;;;4993941;28;20222;-85
2023/12/12 07:09:17;;;;;;;18.48;8.50;;;-1.70;99.90;;;;;;4994376;28;20187;-85
2023/12/12 07:11:44;;;;;;;17.00;7.82;;;-1.70;99.90;;;;;;4993035;28;20195;-83
2023/12/12 07:14:12;;;;;;;14.32;7.43;;;-1.70;99.90;;;;;;4971086;28;20218;-81
2023/12/12 07:16:39;;;;;;;15.25;7.05;;;-1.70;99.90;;;;;;4989011;28;20199;-84
2023/12/12 07:19:07;;;;;;;16.38;7.65;;;-1.70;99.90;;;;;;4993194;28;20187;-84
2023/12/12 07:21:41;;;;;;;16.02;7.88;;;-1.70;99.90;;;;;;4993255;28;20242;-85
2023/12/12 07:24:10;;;;;;;14.50;7.30;;;-1.70;99.90;;;;;;4944864;28;1343364;-85
2023/12/12 07:26:37;;;;;;;17.10;7.65;;;-1.70;99.90;;;;;;4993677;28;20991;-83
2023/12/12 07:29:05;;;;;;;16.30;7.40;;;-1.70;99.90;;;;;;4992767;28;20183;-82
2023/12/12 07:31:32;;;;;;;16.30;7.80;;;-1.60;99.90;;;;;;4993388;28;20187;-84
2023/12/12 07:34:00;;;;;;;14.23;7.78;;;-1.70;99.90;;;;;;4993485;28;20236;-83
2023/12/12 07:36:31;;;;;;;15.82;8.20;;;-1.70;99.90;;;;;;4994274;28;20226;-84
2023/12/12 07:39:00;;;;;;;14.25;7.18;;;-1.60;99.90;;;;;;4993316;28;20258;-81
2023/12/12 07:41:27;;;;;;;13.88;6.95;;;-1.60;99.90;;;;;;4992738;28;20262;-86
2023/12/12 07:43:55;;;;;;;18.27;8.32;;;-1.60;99.90;;;;;;4991960;28;20201;-84
2023/12/12 07:46:23;;;;;;;14.73;7.45;;;-1.60;99.90;;;;;;4981810;28;20252;-83
2023/12/12 07:48:51;;;;;;;16.88;7.65;;;-1.60;99.90;;;;;;4958749;28;20204;-86
2023/12/12 07:51:19;;;;;;;17.27;7.28;;;-1.60;99.90;;;;;;4974633;28;20191;-85
2023/12/12 07:53:47;;;;;;;15.82;7.32;;;-1.60;99.90;;;;;;4955941;28;21073;-81
2023/12/12 07:56:14;;;;;;;16.48;8.32;;;-1.60;99.90;;;;;;4980344;28;20203;-80
2023/12/12 07:58:42;;;;;;;14.38;6.95;;;-1.60;99.90;;;;;;4972989;28;20184;-85
2023/12/12 08:01:09;;;;;;;14.38;7.57;;;-1.60;99.90;;;;;;4987978;28;20514;-85
2023/12/12 08:03:37;;;;;;;14.57;7.72;;;-1.60;99.90;;;;;;4971410;28;20732;-83
2023/12/12 08:06:05;;;;;;;13.75;6.88;;;-1.60;99.90;;;;;;4970510;28;20203;-84
2023/12/12 08:08:32;;;;;;;10.60;6.55;;;-1.60;99.90;;;;;;4968137;28;20198;-83
2023/12/12 08:11:00;;;;;;;16.05;6.78;;;-1.50;99.90;;;;;;4974845;28;20191;-78
2023/12/12 08:13:28;;;;;;;14.52;7.18;;;-1.60;99.90;;;;;;4992032;28;20556;-81
2023/12/12 08:15:58;;;;;;;11.68;6.15;;;-1.50;99.90;;;;;;4995311;28;20183;-81
2023/12/12 08:18:25;;;;;;;14.40;6.82;;;-1.50;99.90;;;;;;4989657;28;20214;-82
2023/12/12 08:20:53;;;;;;;15.27;6.72;;;-1.50;99.90;;;;;;4982734;28;20195;-85
2023/12/12 08:23:20;;;;;;;15.88;6.82;;;-1.60;99.90;;;;;;4978127;28;20229;-84
2023/12/12 08:25:48;;;;;;;13.02;6.43;;;-1.50;99.90;;;;;;4977180;28;20555;-86
2023/12/12 08:28:17;;;;;;;13.02;6.00;;;-1.50;99.90;;;;;;4983260;28;20202;-85
2023/12/12 08:30:44;;;;;;;12.77;6.50;;;-1.50;99.90;;;;;;4976547;28;20676;-84
2023/12/12 08:33:12;;;;;;;14.52;6.45;;;-1.50;99.90;;;;;;4992730;28;20222;-85
2023/12/12 08:35:39;;;;;;;16.35;6.57;;;-1.50;99.90;;;;;;4973983;28;20183;-83
2023/12/12 08:38:07;;;;;;;15.02;7.25;;;-1.60;99.90;;;;;;4971733;28;20195;-86
2023/12/12 08:40:34;;;;;;;12.68;6.70;;;-1.50;99.90;;;;;;4988139;28;20188;-83
2023/12/12 08:43:02;;;;;;;15.13;7.20;;;-1.50;99.90;;;;;;4970333;28;20191;-81
2023/12/12 08:45:30;;;;;;;14.05;6.80;;;-1.50;99.90;;;;;;4970663;28;20242;-84
2023/12/12 08:47:57;;;;;;;14.55;6.85;;;-1.50;99.90;;;;;;4987616;28;20274;-85
2023/12/12 08:50:25;;;;;;;14.13;6.88;;;-1.50;99.90;;;;;;4974787;28;20199;-83
2023/12/12 08:52:52;;;;;;;11.30;6.15;;;-1.50;99.90;;;;;;4971211;28;20214;-85
2023/12/12 08:55:20;;;;;;;14.98;7.45;;;-1.50;99.90;;;;;;4987168;28;20190;-83
2023/12/12 08:57:47;;;;;;;16.33;7.05;;;-1.40;99.90;;;;;;4972959;28;20612;-85
2023/12/12 09:00:15;;;;;;;13.73;7.13;;;-1.40;99.90;;;;;;4989516;28;20187;-85
2023/12/12 09:02:43;;;;;;;14.50;7.15;;;-1.40;99.90;;;;;;4955705;28;20207;-84
2023/12/12 09:05:10;;;;;;;14.38;7.32;;;-1.50;99.90;;;;;;4987246;28;20242;-83
2023/12/12 09:07:38;;;;;;;15.27;7.05;;;-1.40;99.90;;;;;;4970792;28;20221;-82
2023/12/12 09:10:07;;;;;;;12.95;6.85;;;-1.50;99.90;;;;;;4970540;28;20200;-84
2023/12/12 09:12:34;;;;;;;14.00;6.28;;;-1.40;99.90;;;;;;4989950;28;20183;-84
2023/12/12 09:15:02;;;;;;;12.65;6.80;;;-1.40;99.90;;;;;;4988686;28;20199;-84
2023/12/12 09:17:30;;;;;;;13.85;6.95;;;-1.40;99.90;;;;;;4989839;28;20188;-83
2023/12/12 09:19:59;;;;;;;16.05;7.30;;;-1.40;99.90;;;;;;4972339;28;20183;-84
2023/12/12 09:22:27;;;;;;;12.50;7.10;;;-1.40;99.90;;;;;;4989715;28;20562;-85
2023/12/12 09:24:55;;;;;;;13.82;6.57;;;-1.40;99.90;;;;;;4966411;28;20227;-82
2023/12/12 09:27:22;;;;;;;11.52;6.10;;;-1.40;99.90;;;;;;4984863;28;20202;-83
2023/12/12 09:29:49;;;;;;;12.70;6.85;;;-1.40;99.90;;;;;;4970794;28;20196;-81
2023/12/12 09:32:19;;;;;;;13.35;6.75;;;-1.40;99.90;;;;;;4969500;28;20192;-84
2023/12/12 09:34:46;;;;;;;13.88;6.93;;;-1.40;99.90;;;;;;4985244;28;20757;-84
2023/12/12 09:37:14;;;;;;;14.32;7.22;;;-1.40;99.90;;;;;;4990970;28;20184;-84
2023/12/12 09:39:42;;;;;;;15.10;6.80;;;-1.40;99.90;;;;;;4993391;28;20179;-85
2023/12/12 09:42:15;;;;;;;16.05;7.63;;;-1.40;99.90;;;;;;4993212;28;20254;-83
2023/12/12 09:44:58;;;;;;;14.40;7.10;;;-1.40;99.90;;;;;;4993347;28;20179;-83
2023/12/12 09:47:29;;;;;;;12.55;6.90;;;-1.30;99.90;;;;;;4990061;28;20583;-84
2023/12/12 09:49:58;;;;;;;15.32;7.55;;;-1.30;99.90;;;;;;4992851;28;20179;-83
2023/12/12 09:52:30;;;;;;;14.25;7.00;;;-1.40;99.90;;;;;;4992953;28;20195;-84
2023/12/12 09:55:01;;;;;;;16.52;7.38;;;-1.30;99.90;;;;;;4991640;28;20203;-80
2023/12/12 09:57:29;;;;;;;13.38;6.80;;;-1.30;99.90;;;;;;4992203;28;20171;-83
2023/12/12 10:00:00;;;;;;;14.23;7.30;;;-1.30;99.90;;;;;;4992914;28;20198;-84
2023/12/12 10:02:37;;;;;;;15.10;8.38;;;-1.30;99.90;;;;;;4992927;28;20812;-84
2023/12/12 10:05:09;;;;;;;16.50;7.18;;;-1.30;99.90;;;;;;4975722;28;20175;-81
2023/12/12 10:07:38;;;;;;;13.93;7.82;;;-1.30;99.90;;;;;;4975294;28;20234;-84
2023/12/12 10:10:11;;;;;;;13.27;7.15;;;-1.30;99.90;;;;;;4975223;28;20227;-82
2023/12/12 10:12:40;;;;;;;13.38;6.72;;;-1.30;99.90;;;;;;4975019;28;20563;-83
2023/12/12 10:15:27;;;;;;;17.10;7.60;;;-1.30;99.90;;;;;;4992614;28;20187;-85
2023/12/12 10:17:58;;;;;;;14.88;7.28;;;-1.30;99.90;;;;;;4993539;28;20183;-83
2023/12/12 10:20:30;;;;;;;18.42;8.45;;;-1.30;99.90;;;;;;4992075;28;20195;-82
2023/12/12 10:23:00;;;;;;;17.60;8.80;;;-1.20;99.90;;;;;;4976019;28;20701;-81
2023/12/12 10:25:29;;;;;;;15.30;7.80;;;-1.20;99.90;;;;;;4993876;28;20192;-80
2023/12/12 10:27:57;;;;;;;14.52;7.53;;;-1.20;99.90;;;;;;4975574;28;20596;-84
2023/12/12 10:30:26;;;;;;;14.60;8.00;;;-1.20;99.90;;;;;;4992905;28;20229;-86
2023/12/12 10:32:55;;;;;;;16.63;8.63;;;-1.20;99.90;;;;;;4992704;28;20187;-81
2023/12/12 10:35:24;;;;;;;16.45;8.57;;;-1.20;99.90;;;;;;4990015;28;20184;-84
2023/12/12 10:37:53;;;;;;;18.30;8.05;;;-1.20;99.90;;;;;;4991701;28;20194;-84
2023/12/12 10:40:23;;;;;;;18.77;8.70;;;-1.30;99.90;;;;;;4986534;28;20195;-83
2023/12/12 10:42:51;;;;;;;19.80;9.75;;;-1.20;99.90;;;;;;4985448;28;20194;-84
2023/12/12 10:45:23;;;;;;;17.88;8.52;;;-1.20;99.90;;;;;;4992376;28;20226;-84
2023/12/12 10:47:53;;;;;;;16.52;8.77;;;-1.20;99.90;;;;;;4990785;28;20306;-84
2023/12/12 10:50:22;;;;;;;18.60;8.43;;;-1.20;99.90;;;;;;4991107;28;20246;-84
2023/12/12 10:52:52;;;;;;;16.80;8.27;;;-1.20;99.90;;;;;;4988597;28;20192;-84
2023/12/12 10:55:22;;;;;;;18.50;9.80;;;-1.20;99.90;;;;;;4983258;28;20211;-82
2023/12/12 10:57:51;;;;;;;19.13;9.27;;;-1.20;99.90;;;;;;4984570;28;20641;-84
2023/12/12 11:00:20;;;;;;;17.50;8.65;;;-1.20;99.90;;;;;;4988696;28;20191;-84
2023/12/12 11:02:48;;;;;;;16.70;8.73;;;-1.20;99.90;;;;;;4971859;28;20274;-82
2023/12/12 11:05:17;;;;;;;16.13;8.43;;;-1.10;99.90;;;;;;4972271;28;20195;-82
2023/12/12 11:07:47;;;;;;;19.63;9.35;;;-1.10;99.90;;;;;;4972207;28;20189;-84
2023/12/12 11:10:19;;;;;;;18.70;9.02;;;-1.20;99.90;;;;;;4988177;28;20269;-84
2023/12/12 11:12:58;;;;;;;20.67;9.70;;;-1.10;99.90;;;;;;4988913;28;20274;-85
2023/12/12 11:15:27;;;;;;;19.00;9.27;;;-1.10;99.90;;;;;;4989448;28;20195;-83
2023/12/12 11:17:54;;;;;;;16.73;8.98;;;-1.10;99.90;;;;;;4973620;28;20520;-83
2023/12/12 11:20:22;;;;;;;17.65;8.48;;;-1.10;99.90;;;;;;4991962;28;20194;-84
2023/12/12 11:22:53;;;;;;;18.67;9.30;;;-1.20;99.90;;;;;;4988308;28;20183;-84
2023/12/12 11:25:21;;;;;;;20.20;9.95;;;-1.10;99.90;;;;;;4980854;28;20267;-84
2023/12/12 11:27:53;;;;;;;21.00;9.63;;;-1.10;99.90;;;;;;4977750;28;20204;-83
2023/12/12 11:30:31;;;;;;;16.77;8.75;;;-1.10;99.90;;;;;;4977000;28;20277;-84
2023/12/12 11:33:00;;;;;;;16.65;8.77;;;-1.10;99.90;;;;;;4971629;28;20231;-83
2023/12/12 11:35:30;;;;;;;18.90;9.20;;;-1.10;99.90;;;;;;4970895;28;20655;-82
2023/12/12 11:38:24;;;;;;;20.40;9.57;;;-1.10;99.90;;;;;;4953779;28;20196;-83
2023/12/12 11:41:11;;;;;;;17.92;8.40;;;-1.10;99.90;;;;;;4970009;28;20241;-83
2023/12/12 11:43:41;;;;;;;17.25;9.15;;;-1.00;99.90;;;;;;4972323;28;20211;-84
2023/12/12 11:46:20;;;;;;;18.90;9.15;;;-1.10;99.90;;;;;;4979741;28;20191;-82
2023/12/12 11:48:47;;;;;;;18.52;9.27;;;-1.10;99.90;;;;;;4974979;28;20192;-83
2023/12/12 11:51:33;;;;;;;19.73;9.25;;;-1.00;99.90;;;;;;4988663;28;20193;-84
2023/12/12 11:54:06;;;;;;;20.08;9.38;;;-1.10;99.90;;;;;;4980300;28;20211;-84
2023/12/12 11:56:34;;;;;;;20.20;9.20;;;-1.00;99.90;;;;;;4970771;28;20177;-84
2023/12/12 11:59:01;;;;;;;18.70;10.07;;;-1.10;99.90;;;;;;4979620;28;20187;-86
2023/12/12 12:01:29;;;;;;;21.88;10.30;;;-1.00;99.90;;;;;;4937812;28;20203;-86
2023/12/12 12:03:56;;;;;;;18.40;9.63;;;-1.00;99.90;;;;;;4969755;28;20199;-82
2023/12/12 12:06:24;;;;;;;16.50;8.55;;;-1.00;99.90;;;;;;4969778;28;20195;-83
2023/12/12 12:08:52;;;;;;;20.38;9.43;;;-1.00;99.90;;;;;;4971225;28;20196;-85
2023/12/12 12:11:19;;;;;;;17.95;9.65;;;-1.00;99.90;;;;;;4971203;28;20677;-85
2023/12/12 12:13:47;;;;;;;17.35;9.00;;;-1.00;99.90;;;;;;4969761;28;20701;-82
2023/12/12 12:16:14;;;;;;;20.30;10.55;;;-1.00;99.90;;;;;;4950570;28;20303;-85
2023/12/12 12:18:42;;;;;;;20.40;10.13;;;-1.00;99.90;;;;;;4973711;28;20187;-81
2023/12/12 12:21:10;;;;;;;17.92;9.40;;;-1.00;99.90;;;;;;4985944;28;20246;-84
2023/12/12 12:23:40;;;;;;;21.08;9.82;;;-1.00;99.90;;;;;;4979839;28;20323;-82
2023/12/12 12:26:08;;;;;;;20.75;10.32;;;-1.00;99.90;;;;;;4973115;28;20175;-84
2023/12/12 12:28:36;;;;;;;17.63;9.73;;;-1.00;99.90;;;;;;4990332;28;20662;-84
2023/12/12 12:31:05;;;;;;;20.67;10.00;;;-1.00;99.90;;;;;;4990234;28;20616;-83
2023/12/12 12:33:35;;;;;;;22.08;10.60;;;-1.00;99.90;;;;;;4988770;28;20203;-83
2023/12/12 12:36:03;;;;;;;23.50;10.55;;;-1.00;99.90;;;;;;4990219;28;20549;-83
2023/12/12 12:38:32;;;;;;;22.20;10.20;;;-1.00;99.90;;;;;;4990212;28;20187;-84
2023/12/12 12:41:00;;;;;;;21.10;9.13;;;-1.00;99.90;;;;;;4989754;28;20187;-84
2023/12/12 12:43:27;;;;;;;25.33;11.65;;;-1.00;99.90;;;;;;4990218;28;20199;-84